Aviation Digital Data Service (ADDS)

Output produced by METARs form (1238 UTC 17 September 2019)
found at http://www.aviationweather.gov/metar/data/
 
VTBU 171230Z 20005KT 9999 FEW020 BKN100 28/23 Q1007 NOSIG
VTBU 171200Z 20008KT 9999 FEW020 SCT040 BKN100 28/23 Q1007 NOSIG
VTBU 171130Z 18007KT 9999 FEW020 SCT040 BKN100 28/24 Q1007 NOSIG
VTBU 171100Z 18005KT 9999 FEW020 BKN100 28/24 Q1007 NOSIG
VTBU 171030Z 17004KT 9999 FEW020 BKN100 28/24 Q1006 NOSIG
VTBU 171000Z 16004KT 9999 FEW020 BKN100 28/23 Q1006 NOSIG
VTBU 170930Z 11002KT 9999 FEW020 BKN100 28/23 Q1006 NOSIG
VTBU 170900Z 00000KT 9999 FEW020 BKN100 27/23 Q1006 NOSIG
VTBU 170830Z 00000KT 9999 FEW020 BKN100 27/23 Q1006 NOSIG
VTBU 170800Z 36003KT 9999 FEW020 BKN100 27/23 Q1006 NOSIG
VTBU 170730Z 34004KT 9999 FEW020 SCT040 BKN100 26/23 Q1006 NOSIG
VTBU 170700Z 33004KT 9000 -RA FEW018CB SCT035 BKN100 26/23 Q1007 NOSIG
VTBU 170630Z 34005KT 9000 -RA FEW018CB SCT035 BKN100 26/23 Q1007 NOSIG
VTBU 170600Z 36003KT 9000 -RA FEW018CB SCT035 BKN100 26/22 Q1007 RETS NOSIG
VTBU 170530Z 35008KT 9999 -TSRA FEW018CB SCT035 BKN100 26/22 Q1008 NOSIG
VTBU 170500Z 36012KT 9999 -TSRA FEW018CB SCT035 BKN100 26/23 Q1008 TEMPO FM0510 TL0610 5000 TSRA
VTBU 170430Z 29011KT 9999 -TSRA FEW018CB SCT035 BKN100 27/21 Q1009 NOSIG
VTBU 170400Z 19010KT 9999 -TSRA FEW018CB SCT035 BKN100 30/24 Q1008 NOSIG
VTBU 170330Z 15006KT 9999 -SHRA FEW018CB SCT035 30/23 Q1009 TEMPO FM0345 4000 TSRA
VTBU 170300Z 17004KT 9999 VCSH FEW018CB SCT100 30/23 Q1009 NOSIG
VTBU 170230Z 15003KT 9999 VCSH FEW018CB SCT100 29/23 Q1009 NOSIG
VTBU 170200Z 21004KT 9999 FEW020 SCT100 29/23 Q1009 NOSIG
VTBU 170130Z 00000KT 9999 FEW020 29/24 Q1009 NOSIG
VTBU 170100Z 35002KT 9999 FEW020 28/23 Q1008
VTBU 170030Z 04002KT 9999 FEW020 SCT100 27/23 Q1008 NOSIG
VTBU 170000Z 35002KT 9999 FEW020 SCT100 27/23 Q1007 NOSIG
VTBU 162330Z 05002KT 9999 FEW020 SCT040 26/23 Q1007 NOSIG
VTBU 162300Z 06002KT 9999 FEW020 SCT100 27/23 Q1007 NOSIG
VTBU 162130Z 34002KT 9999 FEW020 SCT100 27/23 Q1007 NOSIG
VTBU 162100Z 24004KT 9999 FEW020 SCT100 27/23 Q1006 NOSIG
VTBU 162030Z 28002KT 9999 FEW020 SCT100 27/23 Q1006 NOSIG
VTBU 162000Z 30003KT 9999 FEW020 SCT100 27/23 Q1006 NOSIG
VTBU 161900Z 28004KT 9999 FEW020 28/23 Q1006 NOSIG
VTBU 161830Z 24007KT 9999 FEW020 28/22 Q1007 NOSIG
VTBU 161800Z 23004KT 9999 FEW020 28/23 Q1007 NOSIG
VTBU 161730Z 24004KT 9999 FEW020 28/23 Q1007 NOSIG
VTBU 161700Z 21005KT 9999 FEW020 28/23 Q1007 NOSIG
VTBU 161630Z 22004KT 9999 FEW020 SCT100 28/23 Q1007 NOSIG
VTBU 161600Z 15003KT 9999 FEW020 SCT100 27/24 Q1007 NOSIG
VTBU 161530Z 13002KT 9999 FEW020 SCT100 27/24 Q1007 NOSIG
VTBU 161500Z 11004KT 9999 FEW020 SCT100 28/24 Q1007 NOSIG
VTBU 161430Z 05004KT 9999 FEW020 SCT100 28/24 Q1007 NOSIG
VTBU 161400Z 05002KT 9999 FEW020 28/24 Q1007 NOSIG
VTBU 161330Z 20003KT 9999 FEW020 28/24 Q1006 NOSIG
VTBU 161300Z 23004KT 9999 FEW020 28/24 Q1005 NOSIG
TAF VTBU 171100Z 1712/1812 26006KT 9999 FEW020 SCT100 
     TEMPO 1718/1723 VRB12KT 5000 TSRA FEW018CB SCT035 BKN100 
     BECMG 1801/1803 23010KT